sensor_id;sensor_type;location;lat;lon;timestamp;temperature;humidity
43099;DHT22;28715;51.988;6.020;2023-07-13T00:01:58;19.10;90.60
43099;DHT22;28715;51.988;6.020;2023-07-13T00:04:24;19.10;90.60
43099;DHT22;28715;51.988;6.020;2023-07-13T00:06:50;19.10;90.60
43099;DHT22;28715;51.988;6.020;2023-07-13T00:09:16;19.10;90.60
43099;DHT22;28715;51.988;6.020;2023-07-13T00:11:42;19.10;90.70
43099;DHT22;28715;51.988;6.020;2023-07-13T00:14:07;19.10;90.70
43099;DHT22;28715;51.988;6.020;2023-07-13T00:16:34;19.10;90.60
43099;DHT22;28715;51.988;6.020;2023-07-13T00:19:00;19.00;90.60
43099;DHT22;28715;51.988;6.020;2023-07-13T00:21:25;19.00;90.50
43099;DHT22;28715;51.988;6.020;2023-07-13T00:23:51;19.00;90.40
43099;DHT22;28715;51.988;6.020;2023-07-13T00:26:17;18.90;90.40
43099;DHT22;28715;51.988;6.020;2023-07-13T00:28:42;18.90;90.50
43099;DHT22;28715;51.988;6.020;2023-07-13T00:31:09;18.90;90.60
43099;DHT22;28715;51.988;6.020;2023-07-13T00:33:34;18.90;90.60
43099;DHT22;28715;51.988;6.020;2023-07-13T00:36:00;18.90;90.60
43099;DHT22;28715;51.988;6.020;2023-07-13T00:38:26;18.90;90.70
43099;DHT22;28715;51.988;6.020;2023-07-13T00:40:51;18.90;90.80
43099;DHT22;28715;51.988;6.020;2023-07-13T00:43:18;18.90;90.90
43099;DHT22;28715;51.988;6.020;2023-07-13T00:48:17;18.80;91.00
43099;DHT22;28715;51.988;6.020;2023-07-13T00:50:44;18.80;91.00
43099;DHT22;28715;51.988;6.020;2023-07-13T00:53:11;18.70;90.90
43099;DHT22;28715;51.988;6.020;2023-07-13T00:55:36;18.70;91.10
43099;DHT22;28715;51.988;6.020;2023-07-13T00:58:03;18.70;91.00
43099;DHT22;28715;51.988;6.020;2023-07-13T01:00:30;18.70;91.10
43099;DHT22;28715;51.988;6.020;2023-07-13T01:02:56;18.70;91.10
43099;DHT22;28715;51.988;6.020;2023-07-13T01:05:22;18.60;90.90
43099;DHT22;28715;51.988;6.020;2023-07-13T01:07:48;18.60;91.10
43099;DHT22;28715;51.988;6.020;2023-07-13T01:10:15;18.60;91.20
43099;DHT22;28715;51.988;6.020;2023-07-13T01:12:41;18.60;91.20
43099;DHT22;28715;51.988;6.020;2023-07-13T01:17:51;18.50;91.30
43099;DHT22;28715;51.988;6.020;2023-07-13T01:20:16;18.50;91.30
43099;DHT22;28715;51.988;6.020;2023-07-13T01:22:42;18.40;91.30
43099;DHT22;28715;51.988;6.020;2023-07-13T01:25:08;18.50;91.40
43099;DHT22;28715;51.988;6.020;2023-07-13T01:27:33;18.40;91.40
43099;DHT22;28715;51.988;6.020;2023-07-13T01:29:59;18.40;91.40
43099;DHT22;28715;51.988;6.020;2023-07-13T01:32:29;18.40;91.50
43099;DHT22;28715;51.988;6.020;2023-07-13T01:34:56;18.40;91.50
43099;DHT22;28715;51.988;6.020;2023-07-13T01:37:22;18.30;91.60
43099;DHT22;28715;51.988;6.020;2023-07-13T01:39:48;18.30;91.60
43099;DHT22;28715;51.988;6.020;2023-07-13T01:42:14;18.30;91.50
43099;DHT22;28715;51.988;6.020;2023-07-13T01:44:39;18.30;91.50
43099;DHT22;28715;51.988;6.020;2023-07-13T01:47:05;18.20;91.70
43099;DHT22;28715;51.988;6.020;2023-07-13T01:49:31;18.20;91.70
43099;DHT22;28715;51.988;6.020;2023-07-13T01:51:56;18.20;91.70
43099;DHT22;28715;51.988;6.020;2023-07-13T01:54:22;18.20;91.70
43099;DHT22;28715;51.988;6.020;2023-07-13T01:56:48;18.20;91.70
43099;DHT22;28715;51.988;6.020;2023-07-13T01:59:13;18.10;91.80
43099;DHT22;28715;51.988;6.020;2023-07-13T02:01:39;18.10;91.90
43099;DHT22;28715;51.988;6.020;2023-07-13T02:04:04;18.10;92.00
43099;DHT22;28715;51.988;6.020;2023-07-13T02:06:30;18.10;92.00
43099;DHT22;28715;51.988;6.020;2023-07-13T02:08:55;18.10;92.10
43099;DHT22;28715;51.988;6.020;2023-07-13T02:11:21;18.10;92.10
43099;DHT22;28715;51.988;6.020;2023-07-13T02:13:46;18.10;92.10
43099;DHT22;28715;51.988;6.020;2023-07-13T02:16:12;18.10;92.00
43099;DHT22;28715;51.988;6.020;2023-07-13T02:18:38;18.10;92.10
43099;DHT22;28715;51.988;6.020;2023-07-13T02:21:03;18.10;92.20
43099;DHT22;28715;51.988;6.020;2023-07-13T02:23:29;18.00;92.20
43099;DHT22;28715;51.988;6.020;2023-07-13T02:25:55;18.00;92.30
43099;DHT22;28715;51.988;6.020;2023-07-13T02:28:21;18.00;92.30
43099;DHT22;28715;51.988;6.020;2023-07-13T02:30:48;18.00;92.40
43099;DHT22;28715;51.988;6.020;2023-07-13T02:33:14;18.00;92.50
43099;DHT22;28715;51.988;6.020;2023-07-13T02:35:39;18.00;92.60
43099;DHT22;28715;51.988;6.020;2023-07-13T02:38:06;17.90;92.70
43099;DHT22;28715;51.988;6.020;2023-07-13T02:40:31;17.90;92.70
43099;DHT22;28715;51.988;6.020;2023-07-13T02:42:59;17.90;92.80
43099;DHT22;28715;51.988;6.020;2023-07-13T02:45:25;17.90;93.10
43099;DHT22;28715;51.988;6.020;2023-07-13T02:47:50;17.80;92.90
43099;DHT22;28715;51.988;6.020;2023-07-13T02:50:16;17.80;93.10
43099;DHT22;28715;51.988;6.020;2023-07-13T02:52:42;17.70;93.20
43099;DHT22;28715;51.988;6.020;2023-07-13T02:55:07;17.70;93.20
43099;DHT22;28715;51.988;6.020;2023-07-13T02:57:33;17.70;93.40
43099;DHT22;28715;51.988;6.020;2023-07-13T02:59:59;17.70;93.40
43099;DHT22;28715;51.988;6.020;2023-07-13T03:02:25;17.70;93.40
43099;DHT22;28715;51.988;6.020;2023-07-13T03:04:50;17.70;93.50
43099;DHT22;28715;51.988;6.020;2023-07-13T03:07:16;17.60;93.50
43099;DHT22;28715;51.988;6.020;2023-07-13T03:09:41;17.60;93.60
43099;DHT22;28715;51.988;6.020;2023-07-13T03:12:07;17.60;93.60
43099;DHT22;28715;51.988;6.020;2023-07-13T03:14:33;17.60;93.70
43099;DHT22;28715;51.988;6.020;2023-07-13T03:16:58;17.60;93.80
43099;DHT22;28715;51.988;6.020;2023-07-13T03:19:24;17.60;93.80
43099;DHT22;28715;51.988;6.020;2023-07-13T03:21:50;17.50;93.90
43099;DHT22;28715;51.988;6.020;2023-07-13T03:24:15;17.50;94.00
43099;DHT22;28715;51.988;6.020;2023-07-13T03:26:41;17.50;94.10
43099;DHT22;28715;51.988;6.020;2023-07-13T03:29:06;17.50;94.10
43099;DHT22;28715;51.988;6.020;2023-07-13T03:31:33;17.50;94.10
43099;DHT22;28715;51.988;6.020;2023-07-13T03:33:59;17.40;94.20
43099;DHT22;28715;51.988;6.020;2023-07-13T03:36:26;17.40;94.30
43099;DHT22;28715;51.988;6.020;2023-07-13T03:38:52;17.40;94.40
43099;DHT22;28715;51.988;6.020;2023-07-13T03:41:19;17.40;94.40
43099;DHT22;28715;51.988;6.020;2023-07-13T03:43:45;17.30;94.50
43099;DHT22;28715;51.988;6.020;2023-07-13T03:46:10;17.30;94.60
43099;DHT22;28715;51.988;6.020;2023-07-13T03:48:36;17.30;94.70
43099;DHT22;28715;51.988;6.020;2023-07-13T03:51:01;17.30;94.70
43099;DHT22;28715;51.988;6.020;2023-07-13T03:53:27;17.30;95.10
43099;DHT22;28715;51.988;6.020;2023-07-13T03:55:52;17.30;94.80
43099;DHT22;28715;51.988;6.020;2023-07-13T04:00:50;17.40;94.80
43099;DHT22;28715;51.988;6.020;2023-07-13T04:03:15;17.30;94.90
43099;DHT22;28715;51.988;6.020;2023-07-13T04:05:41;17.40;94.90
43099;DHT22;28715;51.988;6.020;2023-07-13T04:08:07;17.30;94.90
43099;DHT22;28715;51.988;6.020;2023-07-13T04:10:32;17.40;95.00
43099;DHT22;28715;51.988;6.020;2023-07-13T04:12:58;17.40;95.10
43099;DHT22;28715;51.988;6.020;2023-07-13T04:15:23;17.40;95.10
43099;DHT22;28715;51.988;6.020;2023-07-13T04:17:49;17.40;95.20
43099;DHT22;28715;51.988;6.020;2023-07-13T04:20:14;17.30;95.30
43099;DHT22;28715;51.988;6.020;2023-07-13T04:22:40;17.40;95.40
43099;DHT22;28715;51.988;6.020;2023-07-13T04:25:06;17.40;95.40
43099;DHT22;28715;51.988;6.020;2023-07-13T04:27:31;17.40;95.50
43099;DHT22;28715;51.988;6.020;2023-07-13T04:29:57;17.40;95.50
43099;DHT22;28715;51.988;6.020;2023-07-13T04:32:22;17.40;95.60
43099;DHT22;28715;51.988;6.020;2023-07-13T04:34:48;17.40;95.70
43099;DHT22;28715;51.988;6.020;2023-07-13T04:37:18;17.40;95.70
43099;DHT22;28715;51.988;6.020;2023-07-13T04:39:44;17.50;95.80
43099;DHT22;28715;51.988;6.020;2023-07-13T04:42:09;17.50;95.90
43099;DHT22;28715;51.988;6.020;2023-07-13T04:44:35;17.50;95.90
43099;DHT22;28715;51.988;6.020;2023-07-13T04:47:00;17.50;95.90
43099;DHT22;28715;51.988;6.020;2023-07-13T04:49:26;17.60;96.00
43099;DHT22;28715;51.988;6.020;2023-07-13T04:51:51;17.60;96.00
43099;DHT22;28715;51.988;6.020;2023-07-13T04:54:17;17.60;96.00
43099;DHT22;28715;51.988;6.020;2023-07-13T04:56:42;17.70;96.10
43099;DHT22;28715;51.988;6.020;2023-07-13T04:59:08;17.70;96.10
43099;DHT22;28715;51.988;6.020;2023-07-13T05:01:33;17.70;96.10
43099;DHT22;28715;51.988;6.020;2023-07-13T05:03:59;17.80;96.10
43099;DHT22;28715;51.988;6.020;2023-07-13T05:06:25;17.80;96.00
43099;DHT22;28715;51.988;6.020;2023-07-13T05:08:50;17.80;96.00
43099;DHT22;28715;51.988;6.020;2023-07-13T05:11:17;17.80;96.00
43099;DHT22;28715;51.988;6.020;2023-07-13T05:13:43;17.80;96.00
43099;DHT22;28715;51.988;6.020;2023-07-13T05:16:09;17.80;96.10
43099;DHT22;28715;51.988;6.020;2023-07-13T05:18:34;17.90;96.00
43099;DHT22;28715;51.988;6.020;2023-07-13T05:21:02;17.90;96.10
43099;DHT22;28715;51.988;6.020;2023-07-13T05:23:28;17.90;96.20
43099;DHT22;28715;51.988;6.020;2023-07-13T05:25:53;17.90;96.00
43099;DHT22;28715;51.988;6.020;2023-07-13T05:28:19;17.90;96.00
43099;DHT22;28715;51.988;6.020;2023-07-13T05:30:45;17.90;96.00
43099;DHT22;28715;51.988;6.020;2023-07-13T05:33:13;18.00;96.20
43099;DHT22;28715;51.988;6.020;2023-07-13T05:35:39;17.90;96.20
43099;DHT22;28715;51.988;6.020;2023-07-13T05:38:05;17.90;96.20
43099;DHT22;28715;51.988;6.020;2023-07-13T05:40:31;17.90;96.20
43099;DHT22;28715;51.988;6.020;2023-07-13T05:42:56;17.90;96.40
43099;DHT22;28715;51.988;6.020;2023-07-13T05:45:22;17.90;96.40
43099;DHT22;28715;51.988;6.020;2023-07-13T05:47:47;17.90;96.50
43099;DHT22;28715;51.988;6.020;2023-07-13T05:50:13;17.90;96.60
43099;DHT22;28715;51.988;6.020;2023-07-13T05:52:38;17.90;96.60
43099;DHT22;28715;51.988;6.020;2023-07-13T05:55:04;17.90;96.60
43099;DHT22;28715;51.988;6.020;2023-07-13T05:57:30;18.00;96.70
43099;DHT22;28715;51.988;6.020;2023-07-13T05:59:56;18.10;96.70
43099;DHT22;28715;51.988;6.020;2023-07-13T06:02:21;18.20;96.70
43099;DHT22;28715;51.988;6.020;2023-07-13T06:04:47;18.30;96.60
43099;DHT22;28715;51.988;6.020;2023-07-13T06:07:12;18.30;96.80
43099;DHT22;28715;51.988;6.020;2023-07-13T06:09:41;18.40;96.70
43099;DHT22;28715;51.988;6.020;2023-07-13T06:12:06;18.50;96.60
43099;DHT22;28715;51.988;6.020;2023-07-13T06:14:32;18.60;96.60
43099;DHT22;28715;51.988;6.020;2023-07-13T06:19:28;18.60;96.50
43099;DHT22;28715;51.988;6.020;2023-07-13T06:21:54;18.70;96.30
43099;DHT22;28715;51.988;6.020;2023-07-13T06:24:20;18.80;96.30
43099;DHT22;28715;51.988;6.020;2023-07-13T06:26:45;18.90;96.20
43099;DHT22;28715;51.988;6.020;2023-07-13T06:29:11;18.90;96.00
43099;DHT22;28715;51.988;6.020;2023-07-13T06:31:36;19.00;96.20
43099;DHT22;28715;51.988;6.020;2023-07-13T06:34:02;19.10;96.00
43099;DHT22;28715;51.988;6.020;2023-07-13T06:36:27;19.10;95.80
43099;DHT22;28715;51.988;6.020;2023-07-13T06:38:53;19.10;96.10
43099;DHT22;28715;51.988;6.020;2023-07-13T06:41:19;19.20;96.00
43099;DHT22;28715;51.988;6.020;2023-07-13T06:43:44;19.30;96.00
43099;DHT22;28715;51.988;6.020;2023-07-13T06:46:10;19.30;95.70
43099;DHT22;28715;51.988;6.020;2023-07-13T06:48:35;19.30;95.80
43099;DHT22;28715;51.988;6.020;2023-07-13T06:51:01;19.40;95.70
43099;DHT22;28715;51.988;6.020;2023-07-13T06:53:27;19.50;95.80
43099;DHT22;28715;51.988;6.020;2023-07-13T06:55:53;19.60;95.90
43099;DHT22;28715;51.988;6.020;2023-07-13T06:58:18;19.80;95.40
43099;DHT22;28715;51.988;6.020;2023-07-13T07:00:44;19.80;95.20
43099;DHT22;28715;51.988;6.020;2023-07-13T07:03:10;19.90;95.10
43099;DHT22;28715;51.988;6.020;2023-07-13T07:05:35;19.90;95.00
43099;DHT22;28715;51.988;6.020;2023-07-13T07:08:01;19.90;95.20
43099;DHT22;28715;51.988;6.020;2023-07-13T07:10:28;20.00;95.10
43099;DHT22;28715;51.988;6.020;2023-07-13T07:12:54;20.10;94.90
43099;DHT22;28715;51.988;6.020;2023-07-13T07:15:20;20.10;95.10
43099;DHT22;28715;51.988;6.020;2023-07-13T07:17:45;20.20;95.10
43099;DHT22;28715;51.988;6.020;2023-07-13T07:20:11;20.20;95.00
43099;DHT22;28715;51.988;6.020;2023-07-13T07:22:37;20.20;95.00
43099;DHT22;28715;51.988;6.020;2023-07-13T07:25:02;20.20;94.80
43099;DHT22;28715;51.988;6.020;2023-07-13T07:27:28;20.30;94.80
43099;DHT22;28715;51.988;6.020;2023-07-13T07:29:54;20.30;94.70
43099;DHT22;28715;51.988;6.020;2023-07-13T07:32:19;20.30;94.70
43099;DHT22;28715;51.988;6.020;2023-07-13T07:34:45;20.30;94.70
43099;DHT22;28715;51.988;6.020;2023-07-13T07:37:11;20.30;94.80
43099;DHT22;28715;51.988;6.020;2023-07-13T07:39:37;20.30;95.00
43099;DHT22;28715;51.988;6.020;2023-07-13T07:42:03;20.50;95.00
43099;DHT22;28715;51.988;6.020;2023-07-13T07:44:30;20.50;94.70
43099;DHT22;28715;51.988;6.020;2023-07-13T07:46:56;20.60;94.40
43099;DHT22;28715;51.988;6.020;2023-07-13T07:49:21;20.60;94.40
43099;DHT22;28715;51.988;6.020;2023-07-13T07:51:47;20.60;94.30
43099;DHT22;28715;51.988;6.020;2023-07-13T07:54:13;20.60;94.20
43099;DHT22;28715;51.988;6.020;2023-07-13T07:56:38;20.60;94.40
43099;DHT22;28715;51.988;6.020;2023-07-13T07:59:04;20.70;94.50
43099;DHT22;28715;51.988;6.020;2023-07-13T08:01:29;20.80;94.20
43099;DHT22;28715;51.988;6.020;2023-07-13T08:03:55;20.90;94.10
43099;DHT22;28715;51.988;6.020;2023-07-13T08:06:20;21.00;94.00
43099;DHT22;28715;51.988;6.020;2023-07-13T08:08:47;21.00;93.70
43099;DHT22;28715;51.988;6.020;2023-07-13T08:11:13;21.10;93.60
43099;DHT22;28715;51.988;6.020;2023-07-13T08:13:38;21.10;93.80
43099;DHT22;28715;51.988;6.020;2023-07-13T08:16:04;21.20;93.80
43099;DHT22;28715;51.988;6.020;2023-07-13T08:18:30;21.40;93.90
43099;DHT22;28715;51.988;6.020;2023-07-13T08:20:56;21.60;93.40
43099;DHT22;28715;51.988;6.020;2023-07-13T08:23:22;21.80;93.10
43099;DHT22;28715;51.988;6.020;2023-07-13T08:25:51;22.00;93.10
43099;DHT22;28715;51.988;6.020;2023-07-13T08:28:16;22.10;92.60
43099;DHT22;28715;51.988;6.020;2023-07-13T08:30:42;22.30;92.30
43099;DHT22;28715;51.988;6.020;2023-07-13T08:33:07;22.40;92.00
43099;DHT22;28715;51.988;6.020;2023-07-13T08:35:33;22.60;91.20
43099;DHT22;28715;51.988;6.020;2023-07-13T08:37:59;22.60;91.00
43099;DHT22;28715;51.988;6.020;2023-07-13T08:40:26;22.60;91.20
43099;DHT22;28715;51.988;6.020;2023-07-13T08:42:58;22.60;91.10
43099;DHT22;28715;51.988;6.020;2023-07-13T08:45:33;22.70;91.30
43099;DHT22;28715;51.988;6.020;2023-07-13T08:48:13;23.00;91.40
43099;DHT22;28715;51.988;6.020;2023-07-13T08:50:53;23.50;89.40
43099;DHT22;28715;51.988;6.020;2023-07-13T08:53:19;23.70;88.40
43099;DHT22;28715;51.988;6.020;2023-07-13T08:55:46;23.90;88.10
43099;DHT22;28715;51.988;6.020;2023-07-13T08:58:12;23.90;86.70
43099;DHT22;28715;51.988;6.020;2023-07-13T09:01:03;23.90;88.00
43099;DHT22;28715;51.988;6.020;2023-07-13T09:03:27;23.90;87.70
43099;DHT22;28715;51.988;6.020;2023-07-13T09:05:57;23.70;87.20
43099;DHT22;28715;51.988;6.020;2023-07-13T09:11:28;23.40;88.10
43099;DHT22;28715;51.988;6.020;2023-07-13T09:16:11;22.90;87.60
43099;DHT22;28715;51.988;6.020;2023-07-13T09:18:45;22.70;88.20
43099;DHT22;28715;51.988;6.020;2023-07-13T09:21:13;22.60;89.20
43099;DHT22;28715;51.988;6.020;2023-07-13T09:23:39;22.90;89.90
43099;DHT22;28715;51.988;6.020;2023-07-13T09:26:18;23.20;88.20
43099;DHT22;28715;51.988;6.020;2023-07-13T09:28:46;23.40;88.50
43099;DHT22;28715;51.988;6.020;2023-07-13T09:33:39;23.50;84.80
43099;DHT22;28715;51.988;6.020;2023-07-13T09:38:42;23.70;84.00
43099;DHT22;28715;51.988;6.020;2023-07-13T09:46:27;23.90;83.20
43099;DHT22;28715;51.988;6.020;2023-07-13T09:48:55;23.70;83.70
43099;DHT22;28715;51.988;6.020;2023-07-13T09:51:21;23.50;84.50
43099;DHT22;28715;51.988;6.020;2023-07-13T09:53:46;23.30;85.00
43099;DHT22;28715;51.988;6.020;2023-07-13T09:56:22;23.10;85.10
43099;DHT22;28715;51.988;6.020;2023-07-13T09:58:48;22.90;85.30
43099;DHT22;28715;51.988;6.020;2023-07-13T10:01:14;22.80;86.00
43099;DHT22;28715;51.988;6.020;2023-07-13T10:03:51;22.70;88.00
43099;DHT22;28715;51.988;6.020;2023-07-13T10:06:17;22.60;88.70
43099;DHT22;28715;51.988;6.020;2023-07-13T10:08:44;22.50;89.20
43099;DHT22;28715;51.988;6.020;2023-07-13T10:11:27;22.50;90.00
43099;DHT22;28715;51.988;6.020;2023-07-13T10:13:55;22.50;90.00
43099;DHT22;28715;51.988;6.020;2023-07-13T10:16:25;22.50;90.10
43099;DHT22;28715;51.988;6.020;2023-07-13T10:18:57;22.50;90.40
43099;DHT22;28715;51.988;6.020;2023-07-13T10:21:32;22.60;90.30
43099;DHT22;28715;51.988;6.020;2023-07-13T10:24:04;22.70;90.70
43099;DHT22;28715;51.988;6.020;2023-07-13T10:26:32;22.90;90.40
43099;DHT22;28715;51.988;6.020;2023-07-13T10:28:59;23.20;89.20
43099;DHT22;28715;51.988;6.020;2023-07-13T10:31:38;23.30;87.90
43099;DHT22;28715;51.988;6.020;2023-07-13T10:34:16;23.50;87.30
43099;DHT22;28715;51.988;6.020;2023-07-13T10:36:47;23.80;87.30
43099;DHT22;28715;51.988;6.020;2023-07-13T10:39:23;24.00;86.20
43099;DHT22;28715;51.988;6.020;2023-07-13T10:41:54;24.30;86.10
43099;DHT22;28715;51.988;6.020;2023-07-13T10:44:25;24.50;85.40
43099;DHT22;28715;51.988;6.020;2023-07-13T10:47:01;24.50;83.90
43099;DHT22;28715;51.988;6.020;2023-07-13T10:49:31;24.50;84.50
43099;DHT22;28715;51.988;6.020;2023-07-13T10:51:57;24.50;83.50
43099;DHT22;28715;51.988;6.020;2023-07-13T10:54:27;24.30;84.00
43099;DHT22;28715;51.988;6.020;2023-07-13T10:57:06;24.10;83.50
43099;DHT22;28715;51.988;6.020;2023-07-13T10:59:36;23.90;84.30
43099;DHT22;28715;51.988;6.020;2023-07-13T11:04:43;23.50;90.00
43099;DHT22;28715;51.988;6.020;2023-07-13T11:07:11;23.20;91.10
43099;DHT22;28715;51.988;6.020;2023-07-13T11:09:42;22.90;91.80
43099;DHT22;28715;51.988;6.020;2023-07-13T11:17:35;23.20;93.70
43099;DHT22;28715;51.988;6.020;2023-07-13T11:20:23;23.20;92.10
43099;DHT22;28715;51.988;6.020;2023-07-13T11:22:47;23.30;92.00
43099;DHT22;28715;51.988;6.020;2023-07-13T11:27:52;23.50;91.70
43099;DHT22;28715;51.988;6.020;2023-07-13T11:35:33;23.80;90.80
43099;DHT22;28715;51.988;6.020;2023-07-13T11:38:00;23.70;90.00
43099;DHT22;28715;51.988;6.020;2023-07-13T11:40:26;23.70;89.60
43099;DHT22;28715;51.988;6.020;2023-07-13T11:42:58;23.70;89.40
43099;DHT22;28715;51.988;6.020;2023-07-13T11:45:24;23.50;89.60
43099;DHT22;28715;51.988;6.020;2023-07-13T11:47:50;23.60;90.30
43099;DHT22;28715;51.988;6.020;2023-07-13T11:50:19;23.80;90.00
43099;DHT22;28715;51.988;6.020;2023-07-13T11:52:49;23.80;89.40
43099;DHT22;28715;51.988;6.020;2023-07-13T11:55:20;23.90;87.70
43099;DHT22;28715;51.988;6.020;2023-07-13T11:57:50;23.90;87.30
43099;DHT22;28715;51.988;6.020;2023-07-13T12:00:21;24.00;87.30
43099;DHT22;28715;51.988;6.020;2023-07-13T12:02:48;24.30;85.40
43099;DHT22;28715;51.988;6.020;2023-07-13T12:05:15;24.50;84.60
43099;DHT22;28715;51.988;6.020;2023-07-13T12:07:43;24.60;84.40
43099;DHT22;28715;51.988;6.020;2023-07-13T12:12:58;24.80;82.20
43099;DHT22;28715;51.988;6.020;2023-07-13T12:15:26;24.70;82.40
43099;DHT22;28715;51.988;6.020;2023-07-13T12:17:53;24.50;83.20
43099;DHT22;28715;51.988;6.020;2023-07-13T12:20:26;24.40;82.50
43099;DHT22;28715;51.988;6.020;2023-07-13T12:22:52;24.30;83.00
43099;DHT22;28715;51.988;6.020;2023-07-13T12:25:18;24.20;83.30
43099;DHT22;28715;51.988;6.020;2023-07-13T12:27:47;24.00;83.10
43099;DHT22;28715;51.988;6.020;2023-07-13T12:35:40;24.10;87.50
43099;DHT22;28715;51.988;6.020;2023-07-13T12:38:10;24.40;88.00
43099;DHT22;28715;51.988;6.020;2023-07-13T12:40:36;24.70;86.80
43099;DHT22;28715;51.988;6.020;2023-07-13T12:43:02;24.90;84.90
43099;DHT22;28715;51.988;6.020;2023-07-13T12:45:30;25.10;83.20
43099;DHT22;28715;51.988;6.020;2023-07-13T12:48:02;25.20;82.30
43099;DHT22;28715;51.988;6.020;2023-07-13T12:50:38;25.30;80.90
43099;DHT22;28715;51.988;6.020;2023-07-13T12:53:12;25.20;82.00
43099;DHT22;28715;51.988;6.020;2023-07-13T12:55:48;25.20;81.50
43099;DHT22;28715;51.988;6.020;2023-07-13T12:58:21;25.00;81.20
43099;DHT22;28715;51.988;6.020;2023-07-13T13:00:49;24.80;81.30
43099;DHT22;28715;51.988;6.020;2023-07-13T13:03:37;24.50;82.50
43099;DHT22;28715;51.988;6.020;2023-07-13T13:06:04;24.20;83.50
43099;DHT22;28715;51.988;6.020;2023-07-13T13:08:47;24.00;84.30
43099;DHT22;28715;51.988;6.020;2023-07-13T13:11:14;23.80;84.50
43099;DHT22;28715;51.988;6.020;2023-07-13T13:13:41;23.70;85.10
43099;DHT22;28715;51.988;6.020;2023-07-13T13:18:52;23.80;85.30
43099;DHT22;28715;51.988;6.020;2023-07-13T13:21:22;23.70;84.50
43099;DHT22;28715;51.988;6.020;2023-07-13T13:23:48;23.80;84.80
43099;DHT22;28715;51.988;6.020;2023-07-13T13:26:16;23.90;85.80
43099;DHT22;28715;51.988;6.020;2023-07-13T13:28:46;24.10;85.50
43099;DHT22;28715;51.988;6.020;2023-07-13T13:31:13;24.10;83.50
43099;DHT22;28715;51.988;6.020;2023-07-13T13:33:43;24.20;84.00
43099;DHT22;28715;51.988;6.020;2023-07-13T13:36:16;24.30;84.20
43099;DHT22;28715;51.988;6.020;2023-07-13T13:38:42;24.50;83.20
43099;DHT22;28715;51.988;6.020;2023-07-13T13:41:12;24.60;84.10
43099;DHT22;28715;51.988;6.020;2023-07-13T13:43:40;24.80;83.50
43099;DHT22;28715;51.988;6.020;2023-07-13T13:48:45;24.80;82.60
43099;DHT22;28715;51.988;6.020;2023-07-13T13:51:20;24.80;82.20
43099;DHT22;28715;51.988;6.020;2023-07-13T13:53:47;24.70;82.40
43099;DHT22;28715;51.988;6.020;2023-07-13T13:56:13;24.70;83.40
43099;DHT22;28715;51.988;6.020;2023-07-13T13:58:39;24.70;84.40
43099;DHT22;28715;51.988;6.020;2023-07-13T14:01:04;24.70;83.40
43099;DHT22;28715;51.988;6.020;2023-07-13T14:03:33;24.70;83.20
43099;DHT22;28715;51.988;6.020;2023-07-13T14:05:59;24.70;83.80
43099;DHT22;28715;51.988;6.020;2023-07-13T14:08:25;24.90;84.80
43099;DHT22;28715;51.988;6.020;2023-07-13T14:10:52;25.00;84.70
43099;DHT22;28715;51.988;6.020;2023-07-13T14:13:23;25.10;84.00
43099;DHT22;28715;51.988;6.020;2023-07-13T14:15:52;25.20;83.30
43099;DHT22;28715;51.988;6.020;2023-07-13T14:18:17;25.10;78.90
43099;DHT22;28715;51.988;6.020;2023-07-13T14:20:44;25.10;77.40
43099;DHT22;28715;51.988;6.020;2023-07-13T14:23:12;25.30;77.60
43099;DHT22;28715;51.988;6.020;2023-07-13T14:25:38;25.40;74.40
43099;DHT22;28715;51.988;6.020;2023-07-13T14:28:04;25.50;75.90
43099;DHT22;28715;51.988;6.020;2023-07-13T14:30:36;25.50;75.90
43099;DHT22;28715;51.988;6.020;2023-07-13T14:33:04;25.60;75.20
43099;DHT22;28715;51.988;6.020;2023-07-13T14:35:32;25.60;75.80
43099;DHT22;28715;51.988;6.020;2023-07-13T14:38:10;25.70;75.60
43099;DHT22;28715;51.988;6.020;2023-07-13T14:40:43;25.60;73.50
43099;DHT22;28715;51.988;6.020;2023-07-13T14:43:15;25.40;74.10
43099;DHT22;28715;51.988;6.020;2023-07-13T14:45:43;25.20;74.20
43099;DHT22;28715;51.988;6.020;2023-07-13T14:48:19;25.10;75.00
43099;DHT22;28715;51.988;6.020;2023-07-13T14:50:45;25.00;75.20
43099;DHT22;28715;51.988;6.020;2023-07-13T14:53:13;24.90;74.20
43099;DHT22;28715;51.988;6.020;2023-07-13T14:55:39;24.80;75.30
43099;DHT22;28715;51.988;6.020;2023-07-13T14:58:05;24.70;74.60
43099;DHT22;28715;51.988;6.020;2023-07-13T15:00:31;24.70;75.60
43099;DHT22;28715;51.988;6.020;2023-07-13T15:02:59;24.70;75.10
43099;DHT22;28715;51.988;6.020;2023-07-13T15:05:29;24.70;75.20
43099;DHT22;28715;51.988;6.020;2023-07-13T15:07:57;24.60;75.20
43099;DHT22;28715;51.988;6.020;2023-07-13T15:10:27;24.60;75.50
43099;DHT22;28715;51.988;6.020;2023-07-13T15:15:43;24.50;75.60
43099;DHT22;28715;51.988;6.020;2023-07-13T15:18:09;24.50;74.90
43099;DHT22;28715;51.988;6.020;2023-07-13T15:20:36;24.50;75.50
43099;DHT22;28715;51.988;6.020;2023-07-13T15:23:02;24.60;75.50
43099;DHT22;28715;51.988;6.020;2023-07-13T15:25:28;24.70;75.50
43099;DHT22;28715;51.988;6.020;2023-07-13T15:27:56;24.70;75.30
43099;DHT22;28715;51.988;6.020;2023-07-13T15:30:22;24.70;74.90
43099;DHT22;28715;51.988;6.020;2023-07-13T15:32:47;24.70;74.80
43099;DHT22;28715;51.988;6.020;2023-07-13T15:35:17;24.70;74.80
43099;DHT22;28715;51.988;6.020;2023-07-13T15:37:43;24.60;75.20
43099;DHT22;28715;51.988;6.020;2023-07-13T15:40:10;24.50;75.00
43099;DHT22;28715;51.988;6.020;2023-07-13T15:42:37;24.40;74.90
43099;DHT22;28715;51.988;6.020;2023-07-13T15:45:04;24.40;75.60
43099;DHT22;28715;51.988;6.020;2023-07-13T15:47:31;24.30;75.60
43099;DHT22;28715;51.988;6.020;2023-07-13T15:49:57;24.30;75.50
43099;DHT22;28715;51.988;6.020;2023-07-13T15:52:23;24.30;76.00
43099;DHT22;28715;51.988;6.020;2023-07-13T15:54:49;24.30;76.40
43099;DHT22;28715;51.988;6.020;2023-07-13T15:57:16;24.20;76.10
43099;DHT22;28715;51.988;6.020;2023-07-13T15:59:41;24.20;77.90
43099;DHT22;28715;51.988;6.020;2023-07-13T16:02:18;24.10;77.20
43099;DHT22;28715;51.988;6.020;2023-07-13T16:04:44;24.10;77.20
43099;DHT22;28715;51.988;6.020;2023-07-13T16:07:10;24.10;77.60
43099;DHT22;28715;51.988;6.020;2023-07-13T16:09:36;24.10;78.40
43099;DHT22;28715;51.988;6.020;2023-07-13T16:14:51;24.00;79.50
43099;DHT22;28715;51.988;6.020;2023-07-13T16:17:16;24.00;80.60
43099;DHT22;28715;51.988;6.020;2023-07-13T16:19:42;24.10;79.60
43099;DHT22;28715;51.988;6.020;2023-07-13T16:22:13;24.10;79.30
43099;DHT22;28715;51.988;6.020;2023-07-13T16:24:39;24.10;80.00
43099;DHT22;28715;51.988;6.020;2023-07-13T16:27:05;24.20;76.30
43099;DHT22;28715;51.988;6.020;2023-07-13T16:29:34;24.10;76.90
43099;DHT22;28715;51.988;6.020;2023-07-13T16:32:04;24.20;77.00